Terminal Aerodrome Forecast
Issued by NWS

Home | Current Version | Previous Version | Text Only | Print | Product List | Glossary On
Versions: 1 2 3 4 5 6 7 8 9 10 11 12 13 14 15 16 17 18 19 20 21 22 23 24 25 26 27 28 29 30 31 32 33 34 35 36 37 38 39 40 41 42 43
000
FTUS45 KLKN 310520
TAFELY
TAF
KELY 310520Z 3106/0106 36008G17KT P6SM VCSH OVC005
      TEMPO 3106/3110 2SM -SNRA OVC005
     FM311400 36010G22KT P6SM FEW010 FEW150=

USA.gov is the U.S. government's official web portal to all federal, state and local government web resources and services.